sensor_id;sensor_type;location;lat;lon;timestamp;temperature;humidity
43089;DHT22;28709;52.030;5.652;2023-08-17T00:01:39;18.30;99.90
43089;DHT22;28709;52.030;5.652;2023-08-17T00:04:05;18.30;99.90
43089;DHT22;28709;52.030;5.652;2023-08-17T00:06:31;18.20;99.90
43089;DHT22;28709;52.030;5.652;2023-08-17T00:08:56;18.20;99.90
43089;DHT22;28709;52.030;5.652;2023-08-17T00:11:22;18.20;99.90
43089;DHT22;28709;52.030;5.652;2023-08-17T00:13:48;18.20;99.90
43089;DHT22;28709;52.030;5.652;2023-08-17T00:16:13;18.10;99.90
43089;DHT22;28709;52.030;5.652;2023-08-17T00:18:39;18.10;99.90
43089;DHT22;28709;52.030;5.652;2023-08-17T00:21:05;18.10;99.90
43089;DHT22;28709;52.030;5.652;2023-08-17T00:23:30;18.10;99.90
43089;DHT22;28709;52.030;5.652;2023-08-17T00:25:56;18.10;99.90
43089;DHT22;28709;52.030;5.652;2023-08-17T00:28:22;18.10;99.90
43089;DHT22;28709;52.030;5.652;2023-08-17T00:30:47;18.10;99.90
43089;DHT22;28709;52.030;5.652;2023-08-17T00:33:13;18.00;99.90
43089;DHT22;28709;52.030;5.652;2023-08-17T00:35:39;18.00;99.90
43089;DHT22;28709;52.030;5.652;2023-08-17T00:38:04;18.00;99.90
43089;DHT22;28709;52.030;5.652;2023-08-17T00:40:30;17.90;99.90
43089;DHT22;28709;52.030;5.652;2023-08-17T00:42:56;17.90;99.90
43089;DHT22;28709;52.030;5.652;2023-08-17T00:45:22;17.80;99.90
43089;DHT22;28709;52.030;5.652;2023-08-17T00:47:48;17.80;99.90
43089;DHT22;28709;52.030;5.652;2023-08-17T00:50:15;17.80;99.90
43089;DHT22;28709;52.030;5.652;2023-08-17T00:52:41;17.80;99.90
43089;DHT22;28709;52.030;5.652;2023-08-17T00:55:09;17.70;99.90
43089;DHT22;28709;52.030;5.652;2023-08-17T00:57:37;17.70;99.90
43089;DHT22;28709;52.030;5.652;2023-08-17T01:00:04;17.60;99.90
43089;DHT22;28709;52.030;5.652;2023-08-17T01:02:31;17.60;99.90
43089;DHT22;28709;52.030;5.652;2023-08-17T01:04:56;17.50;99.90
43089;DHT22;28709;52.030;5.652;2023-08-17T01:07:22;17.50;99.90
43089;DHT22;28709;52.030;5.652;2023-08-17T01:09:48;17.50;99.90
43089;DHT22;28709;52.030;5.652;2023-08-17T01:12:29;17.50;99.90
43089;DHT22;28709;52.030;5.652;2023-08-17T01:15:08;17.50;99.90
43089;DHT22;28709;52.030;5.652;2023-08-17T01:17:47;17.50;99.90
43089;DHT22;28709;52.030;5.652;2023-08-17T01:20:14;17.50;99.90
43089;DHT22;28709;52.030;5.652;2023-08-17T01:22:42;17.40;99.90
43089;DHT22;28709;52.030;5.652;2023-08-17T01:25:08;17.50;99.90
43089;DHT22;28709;52.030;5.652;2023-08-17T01:27:39;17.40;99.90
43089;DHT22;28709;52.030;5.652;2023-08-17T01:30:06;17.40;99.90
43089;DHT22;28709;52.030;5.652;2023-08-17T01:32:41;17.40;99.90
43089;DHT22;28709;52.030;5.652;2023-08-17T01:37:50;17.40;99.90
43089;DHT22;28709;52.030;5.652;2023-08-17T01:40:18;17.40;99.90
43089;DHT22;28709;52.030;5.652;2023-08-17T01:42:44;17.40;99.90
43089;DHT22;28709;52.030;5.652;2023-08-17T01:45:11;17.40;99.90
43089;DHT22;28709;52.030;5.652;2023-08-17T01:47:36;17.40;99.90
43089;DHT22;28709;52.030;5.652;2023-08-17T01:50:02;17.30;99.90
43089;DHT22;28709;52.030;5.652;2023-08-17T01:52:28;17.30;99.90
43089;DHT22;28709;52.030;5.652;2023-08-17T01:54:54;17.30;99.90
43089;DHT22;28709;52.030;5.652;2023-08-17T01:57:19;17.30;99.90
43089;DHT22;28709;52.030;5.652;2023-08-17T01:59:45;17.30;99.90
43089;DHT22;28709;52.030;5.652;2023-08-17T02:02:11;17.20;99.90
43089;DHT22;28709;52.030;5.652;2023-08-17T02:04:40;17.20;99.90
43089;DHT22;28709;52.030;5.652;2023-08-17T02:07:05;17.20;99.90
43089;DHT22;28709;52.030;5.652;2023-08-17T02:09:31;17.20;99.90
43089;DHT22;28709;52.030;5.652;2023-08-17T02:11:57;17.20;99.90
43089;DHT22;28709;52.030;5.652;2023-08-17T02:14:22;17.20;99.90
43089;DHT22;28709;52.030;5.652;2023-08-17T02:16:48;17.20;99.90
43089;DHT22;28709;52.030;5.652;2023-08-17T02:19:14;17.10;99.90
43089;DHT22;28709;52.030;5.652;2023-08-17T02:21:40;17.10;99.90
43089;DHT22;28709;52.030;5.652;2023-08-17T02:24:06;17.10;99.90
43089;DHT22;28709;52.030;5.652;2023-08-17T02:26:31;17.10;99.90
43089;DHT22;28709;52.030;5.652;2023-08-17T02:28:57;17.10;99.90
43089;DHT22;28709;52.030;5.652;2023-08-17T02:31:23;17.00;99.90
43089;DHT22;28709;52.030;5.652;2023-08-17T02:33:48;17.00;99.90
43089;DHT22;28709;52.030;5.652;2023-08-17T02:36:14;17.00;99.90
43089;DHT22;28709;52.030;5.652;2023-08-17T02:38:40;17.00;99.90
43089;DHT22;28709;52.030;5.652;2023-08-17T02:41:05;17.00;99.90
43089;DHT22;28709;52.030;5.652;2023-08-17T02:43:31;17.00;99.90
43089;DHT22;28709;52.030;5.652;2023-08-17T02:45:57;17.00;99.90
43089;DHT22;28709;52.030;5.652;2023-08-17T02:48:24;17.00;99.90
43089;DHT22;28709;52.030;5.652;2023-08-17T02:50:50;17.10;99.90
43089;DHT22;28709;52.030;5.652;2023-08-17T02:53:16;17.00;99.90
43089;DHT22;28709;52.030;5.652;2023-08-17T02:55:41;17.00;99.90
43089;DHT22;28709;52.030;5.652;2023-08-17T02:58:07;17.10;99.90
43089;DHT22;28709;52.030;5.652;2023-08-17T03:00:32;17.10;99.90
43089;DHT22;28709;52.030;5.652;2023-08-17T03:02:58;17.00;99.90
43089;DHT22;28709;52.030;5.652;2023-08-17T03:05:24;17.00;99.90
43089;DHT22;28709;52.030;5.652;2023-08-17T03:07:49;17.00;99.90
43089;DHT22;28709;52.030;5.652;2023-08-17T03:10:15;17.00;99.90
43089;DHT22;28709;52.030;5.652;2023-08-17T03:12:40;17.00;99.90
43089;DHT22;28709;52.030;5.652;2023-08-17T03:15:06;17.00;99.90
43089;DHT22;28709;52.030;5.652;2023-08-17T03:17:32;17.00;99.90
43089;DHT22;28709;52.030;5.652;2023-08-17T03:19:57;17.00;99.90
43089;DHT22;28709;52.030;5.652;2023-08-17T03:22:25;17.00;99.90
43089;DHT22;28709;52.030;5.652;2023-08-17T03:24:51;17.00;99.90
43089;DHT22;28709;52.030;5.652;2023-08-17T03:27:17;17.00;99.90
43089;DHT22;28709;52.030;5.652;2023-08-17T03:29:43;16.90;99.90
43089;DHT22;28709;52.030;5.652;2023-08-17T03:32:09;17.00;99.90
43089;DHT22;28709;52.030;5.652;2023-08-17T03:34:34;16.90;99.90
43089;DHT22;28709;52.030;5.652;2023-08-17T03:37:00;16.90;99.90
43089;DHT22;28709;52.030;5.652;2023-08-17T03:39:26;16.90;99.90
43089;DHT22;28709;52.030;5.652;2023-08-17T03:41:51;16.90;99.90
43089;DHT22;28709;52.030;5.652;2023-08-17T03:44:17;16.90;99.90
43089;DHT22;28709;52.030;5.652;2023-08-17T03:46:42;16.80;99.90
43089;DHT22;28709;52.030;5.652;2023-08-17T03:49:08;16.80;99.90
43089;DHT22;28709;52.030;5.652;2023-08-17T03:51:34;16.80;99.90
43089;DHT22;28709;52.030;5.652;2023-08-17T03:53:59;16.80;99.90
43089;DHT22;28709;52.030;5.652;2023-08-17T03:56:25;16.80;99.90
43089;DHT22;28709;52.030;5.652;2023-08-17T03:58:53;16.70;99.90
43089;DHT22;28709;52.030;5.652;2023-08-17T04:01:18;16.80;99.90
43089;DHT22;28709;52.030;5.652;2023-08-17T04:03:44;16.70;99.90
43089;DHT22;28709;52.030;5.652;2023-08-17T04:06:09;16.70;99.90
43089;DHT22;28709;52.030;5.652;2023-08-17T04:08:38;16.70;99.90
43089;DHT22;28709;52.030;5.652;2023-08-17T04:11:05;16.70;99.90
43089;DHT22;28709;52.030;5.652;2023-08-17T04:13:31;16.70;99.90
43089;DHT22;28709;52.030;5.652;2023-08-17T04:15:57;16.70;99.90
43089;DHT22;28709;52.030;5.652;2023-08-17T04:18:23;16.70;99.90
43089;DHT22;28709;52.030;5.652;2023-08-17T04:20:50;16.70;99.90
43089;DHT22;28709;52.030;5.652;2023-08-17T04:23:15;16.70;99.90
43089;DHT22;28709;52.030;5.652;2023-08-17T04:25:43;16.70;99.90
43089;DHT22;28709;52.030;5.652;2023-08-17T04:28:08;16.60;99.90
43089;DHT22;28709;52.030;5.652;2023-08-17T04:30:34;16.70;99.90
43089;DHT22;28709;52.030;5.652;2023-08-17T04:33:00;16.60;99.90
43089;DHT22;28709;52.030;5.652;2023-08-17T04:35:25;16.60;99.90
43089;DHT22;28709;52.030;5.652;2023-08-17T04:37:51;16.60;99.90
43089;DHT22;28709;52.030;5.652;2023-08-17T04:40:16;16.60;99.90
43089;DHT22;28709;52.030;5.652;2023-08-17T04:42:42;16.60;99.90
43089;DHT22;28709;52.030;5.652;2023-08-17T04:45:08;16.60;99.90
43089;DHT22;28709;52.030;5.652;2023-08-17T04:47:34;16.60;99.90
43089;DHT22;28709;52.030;5.652;2023-08-17T04:49:59;16.60;99.90
43089;DHT22;28709;52.030;5.652;2023-08-17T04:52:25;16.60;99.90
43089;DHT22;28709;52.030;5.652;2023-08-17T04:54:50;16.60;99.90
43089;DHT22;28709;52.030;5.652;2023-08-17T04:57:16;16.60;99.90
43089;DHT22;28709;52.030;5.652;2023-08-17T04:59:43;16.70;99.90
43089;DHT22;28709;52.030;5.652;2023-08-17T05:02:08;16.70;99.90
43089;DHT22;28709;52.030;5.652;2023-08-17T05:04:35;16.70;99.90
43089;DHT22;28709;52.030;5.652;2023-08-17T05:07:00;16.70;99.90
43089;DHT22;28709;52.030;5.652;2023-08-17T05:09:27;16.70;99.90
43089;DHT22;28709;52.030;5.652;2023-08-17T05:11:52;16.70;99.90
43089;DHT22;28709;52.030;5.652;2023-08-17T05:14:18;16.70;99.90
43089;DHT22;28709;52.030;5.652;2023-08-17T05:16:44;16.70;99.90
43089;DHT22;28709;52.030;5.652;2023-08-17T05:19:09;16.60;99.90
43089;DHT22;28709;52.030;5.652;2023-08-17T05:21:35;16.70;99.90
43089;DHT22;28709;52.030;5.652;2023-08-17T05:24:01;16.60;99.90
43089;DHT22;28709;52.030;5.652;2023-08-17T05:26:27;16.60;99.90
43089;DHT22;28709;52.030;5.652;2023-08-17T05:28:53;16.70;99.90
43089;DHT22;28709;52.030;5.652;2023-08-17T05:31:18;16.70;99.90
43089;DHT22;28709;52.030;5.652;2023-08-17T05:33:44;16.80;99.90
43089;DHT22;28709;52.030;5.652;2023-08-17T05:36:09;16.90;99.90
43089;DHT22;28709;52.030;5.652;2023-08-17T05:38:36;16.90;99.90
43089;DHT22;28709;52.030;5.652;2023-08-17T05:41:01;16.90;99.90
43089;DHT22;28709;52.030;5.652;2023-08-17T05:43:27;16.90;99.90
43089;DHT22;28709;52.030;5.652;2023-08-17T05:45:53;16.90;99.90
43089;DHT22;28709;52.030;5.652;2023-08-17T05:48:19;16.90;99.90
43089;DHT22;28709;52.030;5.652;2023-08-17T05:50:46;16.90;99.90
43089;DHT22;28709;52.030;5.652;2023-08-17T05:53:12;16.90;99.90
43089;DHT22;28709;52.030;5.652;2023-08-17T05:55:38;16.90;99.90
43089;DHT22;28709;52.030;5.652;2023-08-17T05:58:03;16.90;99.90
43089;DHT22;28709;52.030;5.652;2023-08-17T06:00:29;16.90;99.90
43089;DHT22;28709;52.030;5.652;2023-08-17T06:02:55;17.00;99.90
43089;DHT22;28709;52.030;5.652;2023-08-17T06:05:27;17.10;99.90
43089;DHT22;28709;52.030;5.652;2023-08-17T06:07:54;17.20;99.90
43089;DHT22;28709;52.030;5.652;2023-08-17T06:10:19;17.30;99.90
43089;DHT22;28709;52.030;5.652;2023-08-17T06:12:46;17.40;99.90
43089;DHT22;28709;52.030;5.652;2023-08-17T06:15:11;17.50;99.90
43089;DHT22;28709;52.030;5.652;2023-08-17T06:17:37;17.50;99.90
43089;DHT22;28709;52.030;5.652;2023-08-17T06:20:03;17.50;99.90
43089;DHT22;28709;52.030;5.652;2023-08-17T06:22:28;17.60;99.90
43089;DHT22;28709;52.030;5.652;2023-08-17T06:24:54;17.60;99.90
43089;DHT22;28709;52.030;5.652;2023-08-17T06:27:20;17.60;99.90
43089;DHT22;28709;52.030;5.652;2023-08-17T06:29:45;17.60;99.90
43089;DHT22;28709;52.030;5.652;2023-08-17T06:32:11;17.60;99.90
43089;DHT22;28709;52.030;5.652;2023-08-17T06:34:36;17.70;99.90
43089;DHT22;28709;52.030;5.652;2023-08-17T06:37:03;17.70;99.90
43089;DHT22;28709;52.030;5.652;2023-08-17T06:39:28;17.70;99.90
43089;DHT22;28709;52.030;5.652;2023-08-17T06:41:54;17.70;99.90
43089;DHT22;28709;52.030;5.652;2023-08-17T06:44:20;17.80;99.90
43089;DHT22;28709;52.030;5.652;2023-08-17T06:46:46;17.70;99.90
43089;DHT22;28709;52.030;5.652;2023-08-17T06:49:12;17.70;99.90
43089;DHT22;28709;52.030;5.652;2023-08-17T06:51:38;17.70;99.90
43089;DHT22;28709;52.030;5.652;2023-08-17T06:54:06;17.80;99.90
43089;DHT22;28709;52.030;5.652;2023-08-17T06:56:32;17.80;99.90
43089;DHT22;28709;52.030;5.652;2023-08-17T06:58:57;17.90;99.90
43089;DHT22;28709;52.030;5.652;2023-08-17T07:01:23;18.00;99.90
43089;DHT22;28709;52.030;5.652;2023-08-17T07:03:49;18.10;99.90
43089;DHT22;28709;52.030;5.652;2023-08-17T07:06:14;18.10;99.90
43089;DHT22;28709;52.030;5.652;2023-08-17T07:08:40;18.10;99.90
43089;DHT22;28709;52.030;5.652;2023-08-17T07:11:05;18.20;99.90
43089;DHT22;28709;52.030;5.652;2023-08-17T07:13:31;18.20;99.90
43089;DHT22;28709;52.030;5.652;2023-08-17T07:15:57;18.20;99.90
43089;DHT22;28709;52.030;5.652;2023-08-17T07:18:23;18.30;99.90
43089;DHT22;28709;52.030;5.652;2023-08-17T07:20:49;18.40;99.90
43089;DHT22;28709;52.030;5.652;2023-08-17T07:23:15;18.40;99.90
43089;DHT22;28709;52.030;5.652;2023-08-17T07:25:40;18.50;99.90
43089;DHT22;28709;52.030;5.652;2023-08-17T07:28:06;18.50;99.90
43089;DHT22;28709;52.030;5.652;2023-08-17T07:30:32;18.50;99.90
43089;DHT22;28709;52.030;5.652;2023-08-17T07:32:57;18.60;99.90
43089;DHT22;28709;52.030;5.652;2023-08-17T07:35:23;18.60;99.90
43089;DHT22;28709;52.030;5.652;2023-08-17T07:37:49;18.70;99.90
43089;DHT22;28709;52.030;5.652;2023-08-17T07:40:14;18.70;99.90
43089;DHT22;28709;52.030;5.652;2023-08-17T07:42:40;18.60;99.90
43089;DHT22;28709;52.030;5.652;2023-08-17T07:45:06;18.60;99.90
43089;DHT22;28709;52.030;5.652;2023-08-17T07:47:34;18.70;99.90
43089;DHT22;28709;52.030;5.652;2023-08-17T07:50:02;18.70;99.90
43089;DHT22;28709;52.030;5.652;2023-08-17T07:52:27;18.80;99.90
43089;DHT22;28709;52.030;5.652;2023-08-17T07:54:54;18.70;99.90
43089;DHT22;28709;52.030;5.652;2023-08-17T07:57:19;18.70;99.90
43089;DHT22;28709;52.030;5.652;2023-08-17T07:59:45;18.70;99.90
43089;DHT22;28709;52.030;5.652;2023-08-17T08:02:10;18.80;99.90
43089;DHT22;28709;52.030;5.652;2023-08-17T08:04:36;18.80;99.90
43089;DHT22;28709;52.030;5.652;2023-08-17T08:07:02;18.90;99.90
43089;DHT22;28709;52.030;5.652;2023-08-17T08:09:27;19.00;99.90
43089;DHT22;28709;52.030;5.652;2023-08-17T08:11:53;19.10;99.90
43089;DHT22;28709;52.030;5.652;2023-08-17T08:14:18;19.20;99.90
43089;DHT22;28709;52.030;5.652;2023-08-17T08:16:44;19.20;99.90
43089;DHT22;28709;52.030;5.652;2023-08-17T08:19:10;19.20;99.90
43089;DHT22;28709;52.030;5.652;2023-08-17T08:21:35;19.20;99.90
43089;DHT22;28709;52.030;5.652;2023-08-17T08:24:01;19.30;99.90
43089;DHT22;28709;52.030;5.652;2023-08-17T08:26:26;19.30;99.90
43089;DHT22;28709;52.030;5.652;2023-08-17T08:28:52;19.40;99.90
43089;DHT22;28709;52.030;5.652;2023-08-17T08:31:18;19.50;99.90
43089;DHT22;28709;52.030;5.652;2023-08-17T08:33:43;19.60;99.90
43089;DHT22;28709;52.030;5.652;2023-08-17T08:36:09;19.60;99.90
43089;DHT22;28709;52.030;5.652;2023-08-17T08:38:35;19.60;99.90
43089;DHT22;28709;52.030;5.652;2023-08-17T08:41:01;19.70;99.90
43089;DHT22;28709;52.030;5.652;2023-08-17T08:43:28;19.70;99.90
43089;DHT22;28709;52.030;5.652;2023-08-17T08:45:54;19.70;99.90
43089;DHT22;28709;52.030;5.652;2023-08-17T08:48:22;19.80;99.90
43089;DHT22;28709;52.030;5.652;2023-08-17T08:50:50;19.90;99.90
43089;DHT22;28709;52.030;5.652;2023-08-17T08:53:27;19.90;99.90
43089;DHT22;28709;52.030;5.652;2023-08-17T08:55:59;19.90;99.90
43089;DHT22;28709;52.030;5.652;2023-08-17T08:58:26;19.90;99.90
43089;DHT22;28709;52.030;5.652;2023-08-17T09:00:53;19.90;99.90
43089;DHT22;28709;52.030;5.652;2023-08-17T09:03:20;19.90;99.90
43089;DHT22;28709;52.030;5.652;2023-08-17T09:05:49;19.90;99.90
43089;DHT22;28709;52.030;5.652;2023-08-17T09:08:21;19.90;99.90
43089;DHT22;28709;52.030;5.652;2023-08-17T09:10:47;19.90;99.90
43089;DHT22;28709;52.030;5.652;2023-08-17T09:13:13;19.80;99.90
43089;DHT22;28709;52.030;5.652;2023-08-17T09:15:38;19.80;99.90
43089;DHT22;28709;52.030;5.652;2023-08-17T09:18:05;19.70;99.90
43089;DHT22;28709;52.030;5.652;2023-08-17T09:20:41;19.70;99.90
43089;DHT22;28709;52.030;5.652;2023-08-17T09:23:16;19.70;99.90
43089;DHT22;28709;52.030;5.652;2023-08-17T09:25:43;19.60;99.90
43089;DHT22;28709;52.030;5.652;2023-08-17T09:28:14;19.60;99.90
43089;DHT22;28709;52.030;5.652;2023-08-17T09:33:23;19.70;99.90
43089;DHT22;28709;52.030;5.652;2023-08-17T09:35:50;19.70;99.90
43089;DHT22;28709;52.030;5.652;2023-08-17T09:38:16;19.70;99.90
43089;DHT22;28709;52.030;5.652;2023-08-17T09:40:43;19.70;99.90
43089;DHT22;28709;52.030;5.652;2023-08-17T09:43:09;19.60;99.90
43089;DHT22;28709;52.030;5.652;2023-08-17T09:45:37;19.60;99.90
43089;DHT22;28709;52.030;5.652;2023-08-17T09:48:03;19.60;99.90
43089;DHT22;28709;52.030;5.652;2023-08-17T09:50:29;19.60;99.90
43089;DHT22;28709;52.030;5.652;2023-08-17T09:52:55;19.70;99.90
43089;DHT22;28709;52.030;5.652;2023-08-17T09:55:23;19.80;99.90
43089;DHT22;28709;52.030;5.652;2023-08-17T09:57:50;19.80;99.90
43089;DHT22;28709;52.030;5.652;2023-08-17T10:00:17;19.90;99.90
43089;DHT22;28709;52.030;5.652;2023-08-17T10:02:45;19.80;99.90
43089;DHT22;28709;52.030;5.652;2023-08-17T10:05:12;19.80;99.90
43089;DHT22;28709;52.030;5.652;2023-08-17T10:07:49;19.70;99.90
43089;DHT22;28709;52.030;5.652;2023-08-17T10:10:26;19.70;99.90
43089;DHT22;28709;52.030;5.652;2023-08-17T10:15:34;19.70;99.90
43089;DHT22;28709;52.030;5.652;2023-08-17T10:20:34;19.90;99.90
43089;DHT22;28709;52.030;5.652;2023-08-17T10:23:14;19.90;99.90
43089;DHT22;28709;52.030;5.652;2023-08-17T10:25:42;20.00;99.90
43089;DHT22;28709;52.030;5.652;2023-08-17T10:28:10;20.00;99.90
43089;DHT22;28709;52.030;5.652;2023-08-17T10:30:37;20.00;99.90
43089;DHT22;28709;52.030;5.652;2023-08-17T10:33:05;20.10;99.90
43089;DHT22;28709;52.030;5.652;2023-08-17T10:35:32;20.10;99.90
43089;DHT22;28709;52.030;5.652;2023-08-17T10:37:59;20.10;99.90
43089;DHT22;28709;52.030;5.652;2023-08-17T10:40:28;20.20;99.90
43089;DHT22;28709;52.030;5.652;2023-08-17T10:42:55;20.20;99.90
43089;DHT22;28709;52.030;5.652;2023-08-17T10:45:30;20.20;99.90
43089;DHT22;28709;52.030;5.652;2023-08-17T10:48:25;20.30;99.90
43089;DHT22;28709;52.030;5.652;2023-08-17T10:51:03;20.20;99.90
43089;DHT22;28709;52.030;5.652;2023-08-17T10:53:35;20.30;99.90
43089;DHT22;28709;52.030;5.652;2023-08-17T10:56:07;20.30;99.90
43089;DHT22;28709;52.030;5.652;2023-08-17T10:58:33;20.30;99.90
43089;DHT22;28709;52.030;5.652;2023-08-17T11:00:59;20.40;99.90
43089;DHT22;28709;52.030;5.652;2023-08-17T11:03:25;20.40;99.90
43089;DHT22;28709;52.030;5.652;2023-08-17T11:05:53;20.30;99.90
43089;DHT22;28709;52.030;5.652;2023-08-17T11:08:34;20.30;99.90
43089;DHT22;28709;52.030;5.652;2023-08-17T11:11:04;20.20;99.90
43089;DHT22;28709;52.030;5.652;2023-08-17T11:13:35;20.20;99.90
43089;DHT22;28709;52.030;5.652;2023-08-17T11:16:02;20.20;99.90
43089;DHT22;28709;52.030;5.652;2023-08-17T11:18:28;20.20;99.90
43089;DHT22;28709;52.030;5.652;2023-08-17T11:20:54;20.20;99.90
43089;DHT22;28709;52.030;5.652;2023-08-17T11:23:21;20.20;99.90
43089;DHT22;28709;52.030;5.652;2023-08-17T11:25:47;20.30;99.90
43089;DHT22;28709;52.030;5.652;2023-08-17T11:28:13;20.20;99.90
43089;DHT22;28709;52.030;5.652;2023-08-17T11:30:40;20.20;99.90
43089;DHT22;28709;52.030;5.652;2023-08-17T11:33:06;20.20;99.90
43089;DHT22;28709;52.030;5.652;2023-08-17T11:35:32;20.20;99.90
43089;DHT22;28709;52.030;5.652;2023-08-17T11:37:58;20.20;99.90
43089;DHT22;28709;52.030;5.652;2023-08-17T11:40:25;20.30;99.90
43089;DHT22;28709;52.030;5.652;2023-08-17T11:42:51;20.30;99.90
43089;DHT22;28709;52.030;5.652;2023-08-17T11:45:18;20.40;99.90
43089;DHT22;28709;52.030;5.652;2023-08-17T11:47:44;20.40;99.90
43089;DHT22;28709;52.030;5.652;2023-08-17T11:50:13;20.50;99.90
43089;DHT22;28709;52.030;5.652;2023-08-17T11:52:40;20.50;99.90
43089;DHT22;28709;52.030;5.652;2023-08-17T11:55:08;20.60;99.90
43089;DHT22;28709;52.030;5.652;2023-08-17T11:57:37;20.60;99.90
43089;DHT22;28709;52.030;5.652;2023-08-17T12:00:04;20.70;99.90
43089;DHT22;28709;52.030;5.652;2023-08-17T12:02:35;20.80;99.90
43089;DHT22;28709;52.030;5.652;2023-08-17T12:05:07;20.90;99.90
43089;DHT22;28709;52.030;5.652;2023-08-17T12:07:35;20.80;99.90
43089;DHT22;28709;52.030;5.652;2023-08-17T12:10:02;20.80;99.90
43089;DHT22;28709;52.030;5.652;2023-08-17T12:12:29;20.70;99.90
43089;DHT22;28709;52.030;5.652;2023-08-17T12:14:55;20.70;99.90
43089;DHT22;28709;52.030;5.652;2023-08-17T12:17:21;20.70;99.90
43089;DHT22;28709;52.030;5.652;2023-08-17T12:19:53;20.70;99.90
43089;DHT22;28709;52.030;5.652;2023-08-17T12:22:19;20.70;99.90
43089;DHT22;28709;52.030;5.652;2023-08-17T12:24:48;20.50;99.90
43089;DHT22;28709;52.030;5.652;2023-08-17T12:27:14;20.50;99.90
43089;DHT22;28709;52.030;5.652;2023-08-17T12:29:49;20.50;99.90
43089;DHT22;28709;52.030;5.652;2023-08-17T12:32:19;20.50;99.90
43089;DHT22;28709;52.030;5.652;2023-08-17T12:34:46;20.50;99.90
43089;DHT22;28709;52.030;5.652;2023-08-17T12:37:17;20.50;99.90
43089;DHT22;28709;52.030;5.652;2023-08-17T12:39:43;20.50;99.90
43089;DHT22;28709;52.030;5.652;2023-08-17T12:42:09;20.60;99.90
43089;DHT22;28709;52.030;5.652;2023-08-17T12:44:34;20.50;99.90
43089;DHT22;28709;52.030;5.652;2023-08-17T12:47:00;20.50;99.90
43089;DHT22;28709;52.030;5.652;2023-08-17T12:49:26;20.60;99.90
43089;DHT22;28709;52.030;5.652;2023-08-17T12:51:51;20.60;99.90
43089;DHT22;28709;52.030;5.652;2023-08-17T12:54:17;20.60;99.90
43089;DHT22;28709;52.030;5.652;2023-08-17T12:56:44;20.50;99.90
43089;DHT22;28709;52.030;5.652;2023-08-17T12:59:10;20.50;99.90
43089;DHT22;28709;52.030;5.652;2023-08-17T13:01:36;20.60;99.90
43089;DHT22;28709;52.030;5.652;2023-08-17T13:04:02;20.70;99.90
43089;DHT22;28709;52.030;5.652;2023-08-17T13:06:27;20.80;99.90
43089;DHT22;28709;52.030;5.652;2023-08-17T13:08:53;20.80;99.90
43089;DHT22;28709;52.030;5.652;2023-08-17T13:11:19;20.80;99.90
43089;DHT22;28709;52.030;5.652;2023-08-17T13:13:44;20.80;99.90
43089;DHT22;28709;52.030;5.652;2023-08-17T13:16:10;20.70;99.90
43089;DHT22;28709;52.030;5.652;2023-08-17T13:18:37;20.70;99.90
43089;DHT22;28709;52.030;5.652;2023-08-17T13:21:03;20.70;99.90
43089;DHT22;28709;52.030;5.652;2023-08-17T13:23:28;20.70;99.90
43089;DHT22;28709;52.030;5.652;2023-08-17T13:25:54;20.70;99.90
43089;DHT22;28709;52.030;5.652;2023-08-17T13:28:19;20.80;99.90
43089;DHT22;28709;52.030;5.652;2023-08-17T13:30:45;20.80;99.90
43089;DHT22;28709;52.030;5.652;2023-08-17T13:33:11;20.80;99.90
43089;DHT22;28709;52.030;5.652;2023-08-17T13:35:38;20.80;99.90
43089;DHT22;28709;52.030;5.652;2023-08-17T13:38:03;20.80;99.90
43089;DHT22;28709;52.030;5.652;2023-08-17T13:40:30;20.70;99.90
43089;DHT22;28709;52.030;5.652;2023-08-17T13:42:56;20.80;99.90
43089;DHT22;28709;52.030;5.652;2023-08-17T13:45:24;20.70;99.90
43089;DHT22;28709;52.030;5.652;2023-08-17T13:47:49;20.70;99.90
43089;DHT22;28709;52.030;5.652;2023-08-17T13:50:15;20.60;99.90
43089;DHT22;28709;52.030;5.652;2023-08-17T13:52:41;20.60;99.90
43089;DHT22;28709;52.030;5.652;2023-08-17T13:55:07;20.60;99.90
43089;DHT22;28709;52.030;5.652;2023-08-17T13:57:33;20.50;99.90
43089;DHT22;28709;52.030;5.652;2023-08-17T13:59:59;20.50;99.90
43089;DHT22;28709;52.030;5.652;2023-08-17T14:02:24;20.50;99.90
43089;DHT22;28709;52.030;5.652;2023-08-17T14:04:50;20.40;99.90
43089;DHT22;28709;52.030;5.652;2023-08-17T14:07:15;20.40;99.90
43089;DHT22;28709;52.030;5.652;2023-08-17T14:09:41;20.40;99.90
43089;DHT22;28709;52.030;5.652;2023-08-17T14:12:07;20.40;99.90
43089;DHT22;28709;52.030;5.652;2023-08-17T14:14:32;20.40;99.90
43089;DHT22;28709;52.030;5.652;2023-08-17T14:16:58;20.40;99.90
43089;DHT22;28709;52.030;5.652;2023-08-17T14:19:24;20.40;99.90
43089;DHT22;28709;52.030;5.652;2023-08-17T14:21:49;20.50;99.90
43089;DHT22;28709;52.030;5.652;2023-08-17T14:24:15;20.50;99.90
43089;DHT22;28709;52.030;5.652;2023-08-17T14:26:41;20.50;99.90
43089;DHT22;28709;52.030;5.652;2023-08-17T14:29:06;20.50;99.90
43089;DHT22;28709;52.030;5.652;2023-08-17T14:31:32;20.60;99.90
43089;DHT22;28709;52.030;5.652;2023-08-17T14:33:57;20.60;99.90
43089;DHT22;28709;52.030;5.652;2023-08-17T14:36:23;20.60;99.90
43089;DHT22;28709;52.030;5.652;2023-08-17T14:38:49;20.60;99.90
43089;DHT22;28709;52.030;5.652;2023-08-17T14:41:14;20.70;99.90
43089;DHT22;28709;52.030;5.652;2023-08-17T14:43:40;20.70;99.90
43089;DHT22;28709;52.030;5.652;2023-08-17T14:46:06;20.70;99.90
43089;DHT22;28709;52.030;5.652;2023-08-17T14:48:31;20.70;99.90
43089;DHT22;28709;52.030;5.652;2023-08-17T14:50:57;20.70;99.90
43089;DHT22;28709;52.030;5.652;2023-08-17T14:53:23;20.80;99.90
43089;DHT22;28709;52.030;5.652;2023-08-17T14:55:48;20.80;99.90
43089;DHT22;28709;52.030;5.652;2023-08-17T14:58:14;20.80;99.90
43089;DHT22;28709;52.030;5.652;2023-08-17T15:00:40;20.70;99.90
43089;DHT22;28709;52.030;5.652;2023-08-17T15:03:06;20.70;99.90
43089;DHT22;28709;52.030;5.652;2023-08-17T15:05:32;20.60;99.90
43089;DHT22;28709;52.030;5.652;2023-08-17T15:08:01;20.60;99.90
43089;DHT22;28709;52.030;5.652;2023-08-17T15:10:27;20.60;99.90
43089;DHT22;28709;52.030;5.652;2023-08-17T15:12:52;20.60;99.90
43089;DHT22;28709;52.030;5.652;2023-08-17T15:15:18;20.60;99.90
43089;DHT22;28709;52.030;5.652;2023-08-17T15:17:44;20.60;99.90
43089;DHT22;28709;52.030;5.652;2023-08-17T15:20:10;20.60;99.90
43089;DHT22;28709;52.030;5.652;2023-08-17T15:22:36;20.60;99.90
43089;DHT22;28709;52.030;5.652;2023-08-17T15:25:02;20.60;99.90
43089;DHT22;28709;52.030;5.652;2023-08-17T15:27:28;20.60;99.90
43089;DHT22;28709;52.030;5.652;2023-08-17T15:29:54;20.60;99.90
43089;DHT22;28709;52.030;5.652;2023-08-17T15:32:19;20.60;99.90
43089;DHT22;28709;52.030;5.652;2023-08-17T15:34:45;20.60;99.90
43089;DHT22;28709;52.030;5.652;2023-08-17T15:37:11;20.60;99.90